createdAt,value
2022-09-10T00:02:16.754Z,15.17
2022-09-10T00:07:21.688Z,14.79
2022-09-10T00:12:30.360Z,15.14
2022-09-10T00:17:37.448Z,15.44
2022-09-10T00:22:43.314Z,15.36
2022-09-10T00:27:52.055Z,15.26
2022-09-10T00:32:56.921Z,15.33
2022-09-10T00:38:01.687Z,15.47
2022-09-10T00:43:14.618Z,15.31
2022-09-10T00:48:24.523Z,15.42
2022-09-10T00:53:33.917Z,15.56
2022-09-10T00:58:41.481Z,15.76
2022-09-10T01:03:47.599Z,15.87
2022-09-10T01:08:52.740Z,15.91
2022-09-10T01:14:18.915Z,15.92
2022-09-10T01:19:48.004Z,15.85
2022-09-10T01:24:58.669Z,15.86
2022-09-10T01:30:10.738Z,15.98
2022-09-10T01:35:21.111Z,15.62
2022-09-10T01:40:29.931Z,15.40
2022-09-10T01:45:54.815Z,15.33
2022-09-10T01:51:15.136Z,15.02
2022-09-10T01:56:35.735Z,14.78
2022-09-10T02:01:52.078Z,14.71
2022-09-10T02:06:59.723Z,14.57
2022-09-10T02:12:04.885Z,14.40
2022-09-10T02:17:41.037Z,14.17
2022-09-10T02:22:51.432Z,14.11
2022-09-10T02:27:56.243Z,14.08
2022-09-10T02:33:03.574Z,14.25
2022-09-10T02:38:08.673Z,14.42
2022-09-10T02:43:16.231Z,14.51
2022-09-10T02:48:24.520Z,14.16
2022-09-10T02:53:31.066Z,13.88
2022-09-10T02:58:39.574Z,13.65
2022-09-10T03:03:52.358Z,13.64
2022-09-10T03:08:58.340Z,13.71
2022-09-10T03:14:04.793Z,13.77
2022-09-10T03:19:12.694Z,13.70
2022-09-10T03:24:17.600Z,13.68
2022-09-10T03:29:24.456Z,13.64
2022-09-10T03:34:32.887Z,13.63
2022-09-10T03:39:37.835Z,13.64
2022-09-10T03:44:42.826Z,13.36
2022-09-10T03:49:50.905Z,13.51
2022-09-10T03:54:56.139Z,13.24
2022-09-10T04:00:01.489Z,13.43
2022-09-10T04:05:11.428Z,13.59
2022-09-10T04:10:16.486Z,13.40
2022-09-10T04:15:22.004Z,13.53
2022-09-10T04:20:31.534Z,13.36
2022-09-10T04:25:44.601Z,13.27
2022-09-10T04:30:51.057Z,13.07
2022-09-10T04:36:00.601Z,12.74
2022-09-10T04:41:05.773Z,12.93
2022-09-10T04:46:11.217Z,12.89
2022-09-10T04:51:21.920Z,12.94
2022-09-10T04:56:30.008Z,13.24
2022-09-10T05:01:34.992Z,15.71
2022-09-10T05:06:42.553Z,16.44
2022-09-10T05:11:49.896Z,17.97
2022-09-10T05:16:57.320Z,19.89
2022-09-10T05:22:04.891Z,21.57
2022-09-10T05:27:10.780Z,19.03
2022-09-10T05:32:16.198Z,21.58
2022-09-10T05:37:23.836Z,21.25
2022-09-10T05:42:28.754Z,20.96
2022-09-10T05:47:34.882Z,23.56
2022-09-10T05:52:43.390Z,25.96
2022-09-10T05:57:49.602Z,27.11
2022-09-10T06:03:00.636Z,28.08
2022-09-10T06:08:17.136Z,28.08
2022-09-10T06:13:26.079Z,30.38
2022-09-10T06:18:33.620Z,29.98
2022-09-10T06:23:43.226Z,29.88
2022-09-10T06:28:51.698Z,28.99
2022-09-10T06:34:00.010Z,29.17
2022-09-10T06:39:12.492Z,28.70
2022-09-10T06:44:26.653Z,26.80
2022-09-10T06:49:42.428Z,27.46
2022-09-10T06:54:55.196Z,27.14
2022-09-10T07:00:12.459Z,25.98
2022-09-10T07:05:18.870Z,26.13
2022-09-10T07:10:27.915Z,26.47
2022-09-10T07:15:34.102Z,26.73
2022-09-10T07:20:39.468Z,26.61
2022-09-10T07:25:52.572Z,27.99
2022-09-10T07:31:17.452Z,28.27
2022-09-10T07:36:25.904Z,29.17
2022-09-10T07:41:37.094Z,26.49
2022-09-10T07:46:46.646Z,25.11
2022-09-10T07:52:00.012Z,27.59
2022-09-10T07:57:18.594Z,27.73
2022-09-10T08:02:26.003Z,25.15
2022-09-10T08:07:40.647Z,24.58
2022-09-10T08:12:48.504Z,23.03
2022-09-10T08:17:53.732Z,27.10
2022-09-10T08:23:01.131Z,28.54
2022-09-10T08:28:09.406Z,25.67
2022-09-10T08:33:15.576Z,24.66
2022-09-10T08:38:20.988Z,22.47
2022-09-10T08:43:36.811Z,26.29
2022-09-10T08:48:48.273Z,24.40
2022-09-10T08:54:02.873Z,24.98
2022-09-10T08:59:22.802Z,23.95
2022-09-10T09:04:35.697Z,22.61
2022-09-10T09:09:45.956Z,21.98
2022-09-10T09:15:09.198Z,22.79
2022-09-10T09:20:19.465Z,21.66
2022-09-10T09:25:30.907Z,21.90
2022-09-10T09:30:49.692Z,23.36
2022-09-10T09:35:59.900Z,23.33
2022-09-10T09:41:17.887Z,22.13
2022-09-10T09:46:26.102Z,23.59
2022-09-10T09:51:38.726Z,22.99
2022-09-10T09:56:49.957Z,24.16
2022-09-10T10:01:58.763Z,25.26
2022-09-10T10:07:07.459Z,24.17
2022-09-10T10:12:29.150Z,23.97
2022-09-10T10:17:41.684Z,23.60
2022-09-10T10:22:49.252Z,23.11
2022-09-10T10:27:57.322Z,22.16
2022-09-10T10:33:07.379Z,23.94
2022-09-10T10:38:33.343Z,24.28
2022-09-10T10:43:52.516Z,24.75
2022-09-10T10:49:11.974Z,23.02
2022-09-10T10:54:37.633Z,22.78
2022-09-10T10:59:55.046Z,23.60
2022-09-10T11:05:08.012Z,23.48
2022-09-10T11:10:19.750Z,23.72
2022-09-10T11:15:31.591Z,22.00
2022-09-10T11:20:45.004Z,21.56
2022-09-10T11:25:58.060Z,22.53
2022-09-10T11:31:10.759Z,23.67
2022-09-10T11:36:26.671Z,23.57
2022-09-10T11:41:33.914Z,23.65
2022-09-10T11:46:42.012Z,23.38
2022-09-10T11:51:49.646Z,22.04
2022-09-10T11:57:03.049Z,22.46
2022-09-10T12:02:41.038Z,23.12
2022-09-10T12:07:58.387Z,24.13
2022-09-10T12:13:11.668Z,23.56
2022-09-10T12:18:22.032Z,23.35
2022-09-10T12:23:34.888Z,23.15
2022-09-10T12:29:05.002Z,23.54
2022-09-10T12:34:19.087Z,22.40
2022-09-10T12:39:28.333Z,21.95
2022-09-10T12:44:54.035Z,21.43
2022-09-10T12:50:05.953Z,22.05
2022-09-10T12:55:27.299Z,21.45
2022-09-10T13:00:43.392Z,20.61
2022-09-10T13:05:58.048Z,21.27
2022-09-10T13:11:17.750Z,21.02
2022-09-10T13:16:40.271Z,20.75
2022-09-10T13:21:56.403Z,21.79
2022-09-10T13:27:23.279Z,22.13
2022-09-10T13:32:32.575Z,21.91
2022-09-10T13:38:13.886Z,22.16
2022-09-10T13:43:50.722Z,22.97
2022-09-10T13:49:06.281Z,22.46
2022-09-10T13:54:31.351Z,22.29
2022-09-10T13:59:40.886Z,22.44
2022-09-10T14:04:45.899Z,21.80
2022-09-10T14:09:53.137Z,22.81
2022-09-10T14:15:06.461Z,23.17
2022-09-10T14:20:21.545Z,22.37
2022-09-10T14:25:35.024Z,23.07
2022-09-10T14:30:42.797Z,22.25
2022-09-10T14:35:51.654Z,22.84
2022-09-10T14:41:04.331Z,22.25
2022-09-10T14:46:36.953Z,22.16
2022-09-10T14:51:43.079Z,22.12
2022-09-10T14:56:49.422Z,22.50
2022-09-10T15:01:58.394Z,22.58
2022-09-10T15:07:03.742Z,22.18
2022-09-10T15:12:12.541Z,21.89
2022-09-10T15:17:20.689Z,22.01
2022-09-10T15:22:28.387Z,22.11
2022-09-10T15:27:33.105Z,22.00
2022-09-10T15:32:40.531Z,21.95
2022-09-10T15:37:46.159Z,21.67
2022-09-10T15:42:52.661Z,21.67
2022-09-10T15:48:00.693Z,22.11
2022-09-10T15:53:11.760Z,21.77
2022-09-10T15:58:17.671Z,21.88
2022-09-10T16:03:25.377Z,21.40
2022-09-10T16:08:30.397Z,21.56
2022-09-10T16:13:35.608Z,21.38
2022-09-10T16:18:43.096Z,21.20
2022-09-10T16:23:49.328Z,20.85
2022-09-10T16:28:58.280Z,20.69
2022-09-10T16:34:08.871Z,20.83
2022-09-10T16:39:16.473Z,20.85
2022-09-10T16:44:22.160Z,20.46
2022-09-10T16:49:29.710Z,20.55
2022-09-10T16:54:34.588Z,20.76
2022-09-10T16:59:39.491Z,20.57
2022-09-10T17:04:47.481Z,20.04
2022-09-10T17:09:52.499Z,20.48
2022-09-10T17:14:57.297Z,19.91
2022-09-10T17:20:07.055Z,19.94
2022-09-10T17:25:12.301Z,19.72
2022-09-10T17:30:17.427Z,19.75
2022-09-10T17:35:26.959Z,19.59
2022-09-10T17:40:32.226Z,19.81
2022-09-10T17:45:46.820Z,19.85
2022-09-10T17:50:54.518Z,19.84
2022-09-10T17:56:05.831Z,19.80
2022-09-10T18:01:14.878Z,19.03
2022-09-10T18:06:24.541Z,18.68
2022-09-10T18:11:32.137Z,18.37
2022-09-10T18:16:38.968Z,18.53
2022-09-10T18:21:48.077Z,18.36
2022-09-10T18:26:55.101Z,18.43
2022-09-10T18:32:02.788Z,18.53
2022-09-10T18:37:10.223Z,18.10
2022-09-10T18:42:15.247Z,18.41
2022-09-10T18:47:43.742Z,17.96
2022-09-10T18:52:50.164Z,17.48
2022-09-10T18:57:54.960Z,17.10
2022-09-10T19:03:02.329Z,16.47
2022-09-10T19:08:09.709Z,16.53
2022-09-10T19:13:14.950Z,16.52
2022-09-10T19:18:19.640Z,16.60
2022-09-10T19:23:27.207Z,16.64
2022-09-10T19:28:35.739Z,16.65
2022-09-10T19:33:41.364Z,16.63
2022-09-10T19:38:49.825Z,16.15
2022-09-10T19:43:56.555Z,16.14
2022-09-10T19:49:02.575Z,16.37
2022-09-10T19:54:12.103Z,16.93
2022-09-10T19:59:17.066Z,17.20
2022-09-10T20:04:21.840Z,17.23
2022-09-10T20:09:29.342Z,17.28
2022-09-10T20:14:34.164Z,17.31
2022-09-10T20:19:39.169Z,17.23
2022-09-10T20:24:46.638Z,17.10
2022-09-10T20:29:51.536Z,17.27
2022-09-10T20:34:56.468Z,17.13
2022-09-10T20:40:04.009Z,17.22
2022-09-10T20:45:10.319Z,17.11
2022-09-10T20:50:16.192Z,16.58
2022-09-10T20:55:23.753Z,16.69
2022-09-10T21:00:29.140Z,16.53
2022-09-10T21:05:33.951Z,16.36
2022-09-10T21:10:41.568Z,16.33
2022-09-10T21:15:46.619Z,16.34
2022-09-10T21:20:52.203Z,16.22
2022-09-10T21:25:59.725Z,16.17
2022-09-10T21:31:05.749Z,16.08
2022-09-10T21:36:14.608Z,16.06
2022-09-10T21:41:31.264Z,15.97
2022-09-10T21:46:36.611Z,15.96
2022-09-10T21:51:42.233Z,15.89
2022-09-10T21:56:49.936Z,15.91
2022-09-10T22:01:54.874Z,16.01
2022-09-10T22:06:59.771Z,15.92
2022-09-10T22:12:07.799Z,15.91
2022-09-10T22:17:12.775Z,15.92
2022-09-10T22:22:17.696Z,16.04
2022-09-10T22:27:24.997Z,15.79
2022-09-10T22:32:29.812Z,15.71
2022-09-10T22:37:34.573Z,15.77
2022-09-10T22:42:41.906Z,15.56
2022-09-10T22:47:47.196Z,15.55
2022-09-10T22:52:52.137Z,15.57
2022-09-10T22:57:59.580Z,15.77
2022-09-10T23:03:05.360Z,15.83
2022-09-10T23:08:11.110Z,15.48
2022-09-10T23:13:18.562Z,15.62
2022-09-10T23:18:23.703Z,15.60
2022-09-10T23:23:28.594Z,15.57
2022-09-10T23:28:36.206Z,15.52
2022-09-10T23:33:41.004Z,15.68
2022-09-10T23:38:46.217Z,15.86
2022-09-10T23:43:54.200Z,15.90
2022-09-10T23:48:59.054Z,15.70
2022-09-10T23:54:04.152Z,15.40
2022-09-10T23:59:13.264Z,15.34
